Time;durP1;ratioP1;P1;durP2;ratioP2;P2;SDS_P1;SDS_P2;PMS_P1;PMS_P2;Temp;Humidity;BMP_temperature;BMP_pressure;BME280_temperature;BME280_humidity;BME280_pressure;Samples;Min_cycle;Max_cycle;Signal;HPM_P1;HPM_P2
2023/05/31 00:00:00;;;;;;;4.20;2.67;;;15.10;99.90;;;;;;5009299;28;20503;-84
2023/05/31 00:02:27;;;;;;;2.90;2.27;;;15.10;99.90;;;;;;5007002;28;20484;-84
2023/05/31 00:04:53;;;;;;;4.90;2.87;;;15.10;99.90;;;;;;5001121;28;20547;-84
2023/05/31 00:07:20;;;;;;;3.40;2.40;;;15.10;99.90;;;;;;4998554;28;20449;-84
2023/05/31 00:09:47;;;;;;;6.50;2.63;;;15.00;99.90;;;;;;4999287;28;20826;-84
2023/05/31 00:12:15;;;;;;;2.30;2.10;;;15.00;99.90;;;;;;4998447;28;20448;-84
2023/05/31 00:14:42;;;;;;;6.43;2.33;;;15.00;99.90;;;;;;4998141;28;20475;-84
2023/05/31 00:17:09;;;;;;;3.20;2.10;;;14.90;99.90;;;;;;4998778;28;21036;-84
2023/05/31 00:19:35;;;;;;;4.73;2.23;;;14.80;99.90;;;;;;4999177;28;20449;-84
2023/05/31 00:22:02;;;;;;;7.57;2.27;;;14.80;99.90;;;;;;4998847;28;20487;-84
2023/05/31 00:24:29;;;;;;;3.93;3.23;;;14.80;99.90;;;;;;4999536;28;20480;-83
2023/05/31 00:26:56;;;;;;;2.83;2.17;;;14.90;99.90;;;;;;4999888;28;20449;-83
2023/05/31 00:29:25;;;;;;;5.10;1.93;;;14.90;99.90;;;;;;4999122;28;20800;-83
2023/05/31 00:31:52;;;;;;;6.47;2.30;;;14.80;99.90;;;;;;4999103;28;20918;-83
2023/05/31 00:34:19;;;;;;;3.20;1.63;;;14.80;99.90;;;;;;4998366;28;20473;-84
2023/05/31 00:36:46;;;;;;;4.13;2.10;;;14.80;99.90;;;;;;4998229;28;20449;-84
2023/05/31 00:39:12;;;;;;;2.47;2.27;;;14.80;99.90;;;;;;4997775;28;20484;-84
2023/05/31 00:41:39;;;;;;;6.87;2.43;;;14.80;99.90;;;;;;4997654;28;20484;-84
2023/05/31 00:44:06;;;;;;;3.10;2.20;;;15.00;99.90;;;;;;4997186;28;20807;-84
2023/05/31 00:46:37;;;;;;;3.97;2.13;;;14.70;99.90;;;;;;5002183;28;20437;-84
2023/05/31 00:49:07;;;;;;;5.30;2.30;;;14.70;99.90;;;;;;5005756;28;20440;-84
2023/05/31 00:51:35;;;;;;;5.00;2.20;;;14.60;99.90;;;;;;5003886;28;20449;-83
2023/05/31 00:54:02;;;;;;;4.63;1.90;;;14.40;1.00;;;;;;4997217;28;20453;-83
2023/05/31 00:56:29;;;;;;;5.40;2.90;;;14.50;99.90;;;;;;4996860;28;20453;-82
2023/05/31 00:58:58;;;;;;;4.93;2.07;;;14.60;99.90;;;;;;4999316;28;20927;-85
2023/05/31 01:01:27;;;;;;;2.60;1.70;;;14.40;99.90;;;;;;4999083;28;20469;-84
2023/05/31 01:03:56;;;;;;;2.20;1.77;;;14.50;99.90;;;;;;4999909;28;20473;-84
2023/05/31 01:06:23;;;;;;;3.07;1.87;;;14.30;99.90;;;;;;5000695;28;20449;-84
2023/05/31 01:08:50;;;;;;;2.23;1.97;;;14.40;99.90;;;;;;5001530;28;20444;-84
2023/05/31 01:11:27;;;;;;;2.43;2.23;;;14.40;99.90;;;;;;5001499;28;20516;-84
2023/05/31 01:14:01;;;;;;;1.77;1.67;;;14.50;99.90;;;;;;5000384;28;20808;-83
2023/05/31 01:16:33;;;;;;;3.30;2.23;;;14.30;99.90;;;;;;5000658;28;20432;-83
2023/05/31 01:19:07;;;;;;;4.23;1.80;;;14.30;99.90;;;;;;5000197;28;20439;-83
2023/05/31 01:21:46;;;;;;;2.60;1.97;;;14.20;99.90;;;;;;5000856;28;20480;-84
2023/05/31 01:24:26;;;;;;;3.83;2.23;;;14.10;99.90;;;;;;5005319;28;20469;-83
2023/05/31 01:27:00;;;;;;;2.40;2.00;;;14.20;99.90;;;;;;5018829;28;20476;-84
2023/05/31 01:29:29;;;;;;;2.40;1.83;;;14.20;99.90;;;;;;5012734;28;20428;-83
2023/05/31 01:31:58;;;;;;;5.67;2.63;;;14.20;99.90;;;;;;5001314;28;20441;-84
2023/05/31 01:34:25;;;;;;;3.10;2.30;;;14.20;99.90;;;;;;5002173;28;20468;-84
2023/05/31 01:36:52;;;;;;;2.23;1.87;;;14.20;99.90;;;;;;4999972;28;20453;-84
2023/05/31 01:39:20;;;;;;;5.90;2.07;;;14.20;99.90;;;;;;5000242;28;20453;-83
2023/05/31 01:41:49;;;;;;;2.70;2.23;;;14.10;99.90;;;;;;5000073;28;20485;-83
2023/05/31 01:44:19;;;;;;;4.63;2.30;;;14.10;99.90;;;;;;4999890;28;20481;-84
2023/05/31 01:46:47;;;;;;;3.63;2.33;;;14.10;99.90;;;;;;4999573;28;20475;-84
2023/05/31 02:16:13;;;;;;;3.80;2.30;;;13.60;99.90;;;;;;4999540;28;20969;-84
2023/05/31 02:18:40;;;;;;;3.33;2.33;;;13.50;99.90;;;;;;5000501;28;20427;-83
2023/05/31 02:21:09;;;;;;;4.17;2.57;;;13.30;1.00;;;;;;5005730;28;20515;-83
2023/05/31 02:23:36;;;;;;;3.97;2.83;;;13.40;99.90;;;;;;5003689;28;20445;-84
2023/05/31 02:26:03;;;;;;;7.77;3.10;;;13.40;99.90;;;;;;4998123;28;20472;-84
2023/05/31 02:28:30;;;;;;;3.47;2.33;;;13.40;99.90;;;;;;4999618;28;20491;-84
2023/05/31 02:30:59;;;;;;;3.83;2.37;;;13.30;99.90;;;;;;4997938;28;20513;-84
2023/05/31 02:33:28;;;;;;;2.40;2.20;;;13.30;99.90;;;;;;5001397;28;20468;-84
2023/05/31 02:35:56;;;;;;;3.60;2.30;;;13.30;99.90;;;;;;4999068;28;20477;-83
2023/05/31 02:38:24;;;;;;;6.20;3.03;;;12.90;1.00;;;;;;4997261;28;21014;-84
2023/05/31 02:40:50;;;;;;;2.90;2.10;;;13.20;99.90;;;;;;4997232;28;20456;-84
2023/05/31 02:43:18;;;;;;;2.60;1.63;;;13.20;99.90;;;;;;4996588;28;20579;-85
2023/05/31 02:45:45;;;;;;;2.50;2.00;;;13.20;99.90;;;;;;4996292;28;20473;-84
2023/05/31 02:48:11;;;;;;;3.87;2.60;;;13.10;99.90;;;;;;4996256;28;20456;-85
2023/05/31 02:50:40;;;;;;;4.40;2.33;;;13.10;99.90;;;;;;4996205;28;20456;-85
2023/05/31 02:53:06;;;;;;;3.43;1.77;;;13.10;99.90;;;;;;4999378;28;20504;-85
2023/05/31 02:55:33;;;;;;;4.83;2.17;;;13.10;99.90;;;;;;5000095;28;20488;-84
2023/05/31 02:58:01;;;;;;;7.93;2.20;;;13.10;99.90;;;;;;5001377;28;20507;-85
2023/05/31 03:00:28;;;;;;;6.43;2.60;;;13.00;99.90;;;;;;5013551;28;20479;-84
2023/05/31 03:02:56;;;;;;;3.53;2.40;;;13.00;99.90;;;;;;5021126;28;20490;-84
2023/05/31 03:05:23;;;;;;;1.97;1.63;;;13.00;99.90;;;;;;5002123;28;20494;-84
2023/05/31 03:07:51;;;;;;;5.40;2.40;;;12.90;99.90;;;;;;5010147;28;20460;-84
2023/05/31 03:10:18;;;;;;;2.93;1.90;;;12.90;99.90;;;;;;5006942;28;20544;-84
2023/05/31 03:12:45;;;;;;;9.50;2.87;;;13.00;99.90;;;;;;5001424;28;20479;-84
2023/05/31 03:15:12;;;;;;;5.80;1.90;;;13.00;99.90;;;;;;5001443;28;20999;-84
2023/05/31 03:17:39;;;;;;;2.60;2.40;;;13.00;99.90;;;;;;5001855;28;20491;-85
2023/05/31 03:20:08;;;;;;;3.93;3.17;;;13.00;99.90;;;;;;5001428;28;20888;-84
2023/05/31 03:22:35;;;;;;;4.50;2.37;;;13.00;99.90;;;;;;5000731;28;20481;-84
2023/05/31 03:25:04;;;;;;;6.80;2.53;;;12.90;99.90;;;;;;5000873;28;20464;-84
2023/05/31 03:27:31;;;;;;;3.53;2.73;;;12.90;99.90;;;;;;5001420;28;20453;-84
2023/05/31 03:29:58;;;;;;;2.90;1.93;;;12.90;99.90;;;;;;4999969;28;20452;-84
2023/05/31 03:32:25;;;;;;;4.20;2.60;;;12.90;99.90;;;;;;5000074;28;20520;-84
2023/05/31 03:34:52;;;;;;;3.90;2.63;;;12.80;99.90;;;;;;4999005;28;20487;-84
2023/05/31 03:37:19;;;;;;;6.53;3.03;;;12.60;1.00;;;;;;5002601;28;20902;-84
2023/05/31 03:39:46;;;;;;;4.10;2.87;;;12.90;99.90;;;;;;5003692;28;20449;-84
2023/05/31 03:42:14;;;;;;;3.00;2.17;;;12.90;1.00;;;;;;5000138;28;20553;-83
2023/05/31 03:44:41;;;;;;;3.37;2.20;;;12.90;99.90;;;;;;5002389;28;20585;-84
2023/05/31 03:47:08;;;;;;;3.43;2.40;;;12.90;99.90;;;;;;5005873;28;20554;-84
2023/05/31 03:49:35;;;;;;;2.90;2.33;;;12.90;99.90;;;;;;5007581;28;20459;-84
2023/05/31 03:52:02;;;;;;;4.60;2.90;;;12.90;99.90;;;;;;5017954;28;20517;-83
2023/05/31 03:54:30;;;;;;;4.37;2.53;;;13.00;99.90;;;;;;5009057;28;20479;-83
2023/05/31 03:56:57;;;;;;;3.73;3.10;;;13.00;99.90;;;;;;5006082;28;20455;-84
2023/05/31 03:59:26;;;;;;;5.27;2.63;;;13.00;99.90;;;;;;5007199;28;20485;-85
2023/05/31 04:01:52;;;;;;;3.20;2.65;;;13.00;99.90;;;;;;5006329;28;20452;-85
2023/05/31 04:04:20;;;;;;;6.10;2.20;;;12.60;1.00;;;;;;5002852;28;20222;-85
2023/05/31 04:06:47;;;;;;;2.97;2.40;;;13.00;99.90;;;;;;5000673;28;20502;-85
2023/05/31 04:09:13;;;;;;;5.70;3.33;;;13.00;99.90;;;;;;5000354;28;20548;-85
2023/05/31 04:11:40;;;;;;;4.70;2.40;;;13.00;99.90;;;;;;5000865;28;20453;-85
2023/05/31 04:14:07;;;;;;;3.27;2.53;;;13.10;1.00;;;;;;5012951;28;20472;-84
2023/05/31 04:16:35;;;;;;;10.23;3.20;;;13.10;99.90;;;;;;5017681;28;20460;-85
2023/05/31 04:19:02;;;;;;;3.67;2.67;;;13.20;99.90;;;;;;5006414;28;20545;-85
2023/05/31 04:21:31;;;;;;;3.73;2.70;;;13.20;99.90;;;;;;5001423;28;21021;-85
2023/05/31 04:23:58;;;;;;;5.37;2.57;;;13.50;99.90;;;;;;5000605;28;20488;-85
2023/05/31 04:26:25;;;;;;;4.60;2.60;;;13.30;1.00;;;;;;5002146;28;20552;-84
2023/05/31 04:28:53;;;;;;;7.80;3.00;;;13.40;99.90;;;;;;5002877;28;20457;-85
2023/05/31 04:31:24;;;;;;;5.50;3.27;;;13.20;1.00;;;;;;5002448;28;20472;-85
2023/05/31 04:33:53;;;;;;;5.93;2.70;;;13.50;99.90;;;;;;5002525;28;20492;-85
2023/05/31 04:36:20;;;;;;;15.13;3.03;;;13.50;99.90;;;;;;5003914;28;20456;-85
2023/05/31 04:38:50;;;;;;;2.33;2.13;;;13.50;99.90;;;;;;5005381;28;20457;-85
2023/05/31 04:41:17;;;;;;;5.33;3.53;;;13.60;99.90;;;;;;5004952;28;20453;-85
2023/05/31 04:43:45;;;;;;;4.67;3.53;;;13.60;99.90;;;;;;5002267;28;20538;-85
2023/05/31 04:46:12;;;;;;;10.97;4.30;;;13.60;99.90;;;;;;5002408;28;20511;-85
2023/05/31 04:48:41;;;;;;;11.43;2.70;;;13.60;99.90;;;;;;5003991;28;20464;-84
2023/05/31 04:51:09;;;;;;;9.23;5.07;;;13.60;99.90;;;;;;5005102;28;20467;-85
2023/05/31 04:53:36;;;;;;;3.40;2.20;;;13.70;99.90;;;;;;5007545;28;20484;-84
2023/05/31 04:56:06;;;;;;;11.40;4.27;;;13.80;99.90;;;;;;5007930;28;20471;-84
2023/05/31 04:58:33;;;;;;;4.53;2.90;;;13.80;99.90;;;;;;5003609;28;20453;-84
2023/05/31 05:01:00;;;;;;;3.57;2.47;;;13.80;99.90;;;;;;5005217;28;20430;-84
2023/05/31 05:03:28;;;;;;;9.03;6.30;;;13.80;99.90;;;;;;5004417;28;20564;-84
2023/05/31 05:05:57;;;;;;;10.43;4.07;;;13.80;99.90;;;;;;5003814;28;20481;-84
2023/05/31 05:08:25;;;;;;;4.38;2.80;;;13.90;99.90;;;;;;5004541;28;20472;-84
2023/05/31 05:10:52;;;;;;;3.00;2.63;;;14.00;99.90;;;;;;5006689;28;20459;-84
2023/05/31 05:13:19;;;;;;;8.43;2.87;;;14.00;99.90;;;;;;5007942;28;20877;-84
2023/05/31 05:15:46;;;;;;;12.13;3.00;;;14.10;99.90;;;;;;5007315;28;21016;-84
2023/05/31 05:18:13;;;;;;;8.30;2.30;;;14.10;99.90;;;;;;5007017;28;20496;-84
2023/05/31 05:20:42;;;;;;;4.90;2.47;;;14.20;99.90;;;;;;5004030;28;20476;-84
2023/05/31 05:23:09;;;;;;;5.97;3.37;;;14.20;99.90;;;;;;5011919;28;20477;-84
2023/05/31 05:25:38;;;;;;;7.90;2.93;;;14.30;1.00;;;;;;5004378;28;20996;-84
2023/05/31 05:28:04;;;;;;;5.40;2.63;;;14.30;99.90;;;;;;5002160;28;20500;-84
2023/05/31 05:30:34;;;;;;;10.13;3.07;;;14.20;99.90;;;;;;5001544;28;20467;-84
2023/05/31 05:33:01;;;;;;;4.23;2.73;;;14.10;99.90;;;;;;5000450;28;20445;-84
2023/05/31 05:35:28;;;;;;;7.00;2.83;;;14.30;99.90;;;;;;5003601;28;20551;-85
2023/05/31 05:37:55;;;;;;;4.53;2.90;;;14.20;99.90;;;;;;5005292;28;20455;-84
2023/05/31 05:40:22;;;;;;;4.13;2.30;;;14.30;99.90;;;;;;5005232;28;20455;-84
2023/05/31 05:42:50;;;;;;;8.80;2.30;;;14.40;99.90;;;;;;4998028;28;20583;-84
2023/05/31 05:45:17;;;;;;;11.97;2.90;;;14.40;99.90;;;;;;4997661;28;20539;-84
2023/05/31 05:47:45;;;;;;;4.13;2.80;;;14.40;99.90;;;;;;5000579;28;20448;-85
2023/05/31 05:50:12;;;;;;;2.87;2.50;;;14.50;99.90;;;;;;5003520;28;20483;-84
2023/05/31 05:52:39;;;;;;;5.97;4.10;;;14.50;99.90;;;;;;5016934;28;20461;-86
2023/05/31 05:55:07;;;;;;;5.17;2.47;;;14.60;99.90;;;;;;5008023;28;20472;-85
2023/05/31 05:57:33;;;;;;;9.33;3.10;;;14.70;99.90;;;;;;5015124;28;20480;-84
2023/05/31 06:00:09;;;;;;;6.07;2.90;;;14.90;99.90;;;;;;5006783;28;20522;-84
2023/05/31 06:02:36;;;;;;;6.30;3.43;;;15.00;99.90;;;;;;4999492;28;20472;-83
2023/05/31 06:05:04;;;;;;;7.20;2.70;;;15.00;99.90;;;;;;5008611;28;20516;-84
2023/05/31 06:07:31;;;;;;;7.57;3.17;;;15.10;99.90;;;;;;5018156;28;20429;-82
2023/05/31 06:09:59;;;;;;;8.20;2.57;;;15.30;99.90;;;;;;5011632;28;20453;-83
2023/05/31 06:12:26;;;;;;;8.70;2.87;;;15.30;99.90;;;;;;5007365;28;20445;-87
2023/05/31 06:14:53;;;;;;;8.17;3.30;;;15.30;99.90;;;;;;5005832;28;20471;-88
2023/05/31 06:17:21;;;;;;;12.27;5.13;;;15.30;99.90;;;;;;4998534;28;20480;-86
2023/05/31 06:19:50;;;;;;;6.63;3.03;;;15.40;99.90;;;;;;5001603;28;20456;-84
2023/05/31 06:22:17;;;;;;;5.80;3.07;;;15.40;99.90;;;;;;4998207;28;20451;-84
2023/05/31 06:24:43;;;;;;;4.83;2.77;;;15.50;99.90;;;;;;4998153;28;20476;-84
2023/05/31 06:27:12;;;;;;;8.33;3.50;;;15.50;99.90;;;;;;5001180;28;20512;-84
2023/05/31 06:29:39;;;;;;;8.80;3.63;;;15.30;99.90;;;;;;5002455;28;20947;-84
2023/05/31 06:32:06;;;;;;;6.73;3.00;;;15.90;99.90;;;;;;5003057;28;20531;-83
2023/05/31 06:34:34;;;;;;;5.10;2.87;;;15.60;99.90;;;;;;5006619;28;20463;-83
2023/05/31 06:37:01;;;;;;;4.97;2.90;;;15.70;99.90;;;;;;5004046;28;20878;-84
2023/05/31 06:39:28;;;;;;;5.30;3.10;;;16.20;99.90;;;;;;5003007;28;20556;-83
2023/05/31 06:41:55;;;;;;;8.60;3.03;;;16.10;99.90;;;;;;5005285;28;20516;-82
2023/05/31 06:44:22;;;;;;;5.93;2.67;;;16.10;99.90;;;;;;5002775;28;20632;-80
2023/05/31 06:46:49;;;;;;;6.37;3.07;;;16.20;99.90;;;;;;5004853;28;20452;-80
2023/05/31 06:49:15;;;;;;;6.67;3.03;;;16.30;99.90;;;;;;5003474;28;20453;-82
2023/05/31 06:51:44;;;;;;;8.60;2.70;;;16.40;99.90;;;;;;5006093;28;20448;-81
2023/05/31 06:54:10;;;;;;;11.53;2.90;;;16.30;1.00;;;;;;5003132;28;20486;-80
2023/05/31 06:56:40;;;;;;;4.30;2.90;;;16.90;99.90;;;;;;5003733;28;20865;-83
2023/05/31 06:59:07;;;;;;;6.10;3.07;;;16.60;99.90;;;;;;5004551;28;20595;-81
2023/05/31 07:01:35;;;;;;;10.93;3.10;;;16.70;99.90;;;;;;5003064;28;20506;-80
2023/05/31 07:04:01;;;;;;;9.20;3.40;;;16.70;99.90;;;;;;5002485;28;20480;-80
2023/05/31 07:06:29;;;;;;;4.13;3.23;;;17.00;99.90;;;;;;5002199;28;20459;-82
2023/05/31 07:08:57;;;;;;;7.03;3.40;;;17.00;99.90;;;;;;5002285;28;20503;-82
2023/05/31 07:11:24;;;;;;;9.97;3.00;;;17.20;99.90;;;;;;5002514;28;20427;-81
2023/05/31 07:13:51;;;;;;;12.17;3.07;;;18.30;99.90;;;;;;5001461;28;20452;-80
2023/05/31 07:16:18;;;;;;;5.83;3.20;;;17.30;99.90;;;;;;5004875;28;20525;-81
2023/05/31 07:18:47;;;;;;;10.73;3.37;;;17.50;99.90;;;;;;5015269;28;20982;-81
2023/05/31 07:21:14;;;;;;;7.23;2.90;;;17.70;99.90;;;;;;5014430;28;20437;-81
2023/05/31 07:23:41;;;;;;;12.40;3.20;;;17.70;99.90;;;;;;5008993;28;20484;-81
2023/05/31 07:26:09;;;;;;;8.80;3.50;;;17.60;99.90;;;;;;5010165;28;20472;-81
2023/05/31 07:28:36;;;;;;;6.90;3.20;;;17.70;99.90;;;;;;5011031;28;20449;-82
2023/05/31 07:31:03;;;;;;;6.20;2.10;;;17.80;99.90;;;;;;5008682;28;20484;-82
2023/05/31 07:33:30;;;;;;;9.93;3.33;;;17.90;99.90;;;;;;5002272;28;20447;-81
2023/05/31 07:36:00;;;;;;;3.70;2.40;;;17.90;99.90;;;;;;5003503;28;20480;-81
2023/05/31 07:38:27;;;;;;;12.43;3.00;;;18.10;99.90;;;;;;5001313;28;20429;-81
2023/05/31 07:40:54;;;;;;;8.33;2.83;;;18.10;99.90;;;;;;5003327;28;20786;-81
2023/05/31 07:43:24;;;;;;;6.47;2.83;;;18.00;1.00;;;;;;5003250;28;20480;-82
2023/05/31 07:45:51;;;;;;;4.60;3.10;;;17.40;1.00;;;;;;5006209;28;20548;-81
2023/05/31 07:48:18;;;;;;;6.70;2.70;;;18.40;99.90;;;;;;5003259;28;20491;-81
2023/05/31 07:50:45;;;;;;;3.20;2.67;;;18.50;99.90;;;;;;5004126;28;20453;-82
2023/05/31 07:53:12;;;;;;;3.30;2.77;;;18.60;99.90;;;;;;5014341;28;20470;-81
2023/05/31 07:55:39;;;;;;;4.00;2.50;;;18.70;99.90;;;;;;5004065;28;20529;-81
2023/05/31 07:58:06;;;;;;;4.00;2.57;;;18.70;99.90;;;;;;5004213;28;20483;-83
2023/05/31 08:00:35;;;;;;;3.87;2.80;;;18.80;99.90;;;;;;5002896;28;20973;-81
2023/05/31 08:03:02;;;;;;;5.43;4.70;;;18.90;99.90;;;;;;5002320;28;20880;-81
2023/05/31 08:05:29;;;;;;;7.60;2.60;;;19.00;99.90;;;;;;5002078;28;20810;-81
2023/05/31 08:07:55;;;;;;;6.33;2.77;;;19.10;99.90;;;;;;5002142;28;20476;-83
2023/05/31 08:10:22;;;;;;;3.60;2.20;;;19.10;99.90;;;;;;5002238;28;20976;-83
2023/05/31 08:12:49;;;;;;;5.77;2.63;;;19.20;99.90;;;;;;5001972;28;20528;-83
2023/05/31 08:15:16;;;;;;;4.13;2.70;;;19.10;99.90;;;;;;5005675;28;20536;-81
2023/05/31 08:17:44;;;;;;;7.13;2.57;;;19.20;99.90;;;;;;5010683;28;20531;-81
2023/05/31 08:20:13;;;;;;;6.03;2.30;;;19.20;99.90;;;;;;5010402;28;20453;-82
2023/05/31 08:22:42;;;;;;;4.20;2.67;;;19.30;99.90;;;;;;5011486;28;20471;-81
2023/05/31 08:25:12;;;;;;;5.60;4.13;;;19.30;99.90;;;;;;5005569;28;20493;-78
2023/05/31 08:27:40;;;;;;;5.87;3.03;;;19.40;99.90;;;;;;5002992;28;20460;-81
2023/05/31 08:30:09;;;;;;;2.67;2.40;;;19.50;99.90;;;;;;5002817;28;20898;-81
2023/05/31 08:32:36;;;;;;;5.17;2.60;;;19.50;99.90;;;;;;5004107;28;20449;-81
2023/05/31 08:35:05;;;;;;;9.57;4.20;;;19.60;99.90;;;;;;5000453;28;20469;-79
2023/05/31 08:37:32;;;;;;;3.57;2.90;;;19.70;99.90;;;;;;5001501;28;20528;-81
2023/05/31 08:39:59;;;;;;;8.43;3.50;;;19.80;99.90;;;;;;5001862;28;20463;-82
2023/05/31 08:42:29;;;;;;;3.30;2.63;;;19.90;99.90;;;;;;5003305;28;20456;-83
2023/05/31 08:44:56;;;;;;;6.30;2.33;;;19.90;1.00;;;;;;5007424;28;20496;-84
2023/05/31 08:47:28;;;;;;;4.63;2.63;;;19.80;99.90;;;;;;5006816;28;20480;-83
2023/05/31 08:49:59;;;;;;;4.77;2.20;;;19.80;99.90;;;;;;5003276;28;20437;-82
2023/05/31 08:52:29;;;;;;;3.57;2.10;;;19.70;99.90;;;;;;4999717;28;20536;-82
2023/05/31 08:54:58;;;;;;;8.53;3.10;;;19.70;99.90;;;;;;5003777;28;20461;-83
2023/05/31 08:57:26;;;;;;;5.00;1.90;;;19.80;99.90;;;;;;5003605;28;20589;-82
2023/05/31 08:59:53;;;;;;;3.10;2.53;;;19.90;99.90;;;;;;5003097;28;20579;-83
2023/05/31 09:02:22;;;;;;;4.93;2.17;;;19.90;99.90;;;;;;5006794;28;20445;-82
2023/05/31 09:04:50;;;;;;;1.83;1.60;;;19.90;99.90;;;;;;5004936;28;20491;-81
2023/05/31 09:07:17;;;;;;;2.47;2.07;;;20.00;99.90;;;;;;5004605;28;20536;-81
2023/05/31 09:09:45;;;;;;;4.10;2.07;;;20.00;99.90;;;;;;5007562;28;20449;-80
2023/05/31 09:12:12;;;;;;;3.90;2.17;;;20.00;99.90;;;;;;5017567;28;20506;-81
2023/05/31 09:14:39;;;;;;;4.47;2.00;;;19.90;99.90;;;;;;5007976;28;20461;-83
2023/05/31 09:17:06;;;;;;;5.20;1.90;;;20.10;99.90;;;;;;5002108;28;20540;-82
2023/05/31 09:19:33;;;;;;;4.67;2.30;;;20.70;1.00;;;;;;5007960;28;20496;-81
2023/05/31 09:22:00;;;;;;;4.77;2.00;;;20.30;99.90;;;;;;5016071;28;20444;-82
2023/05/31 09:24:27;;;;;;;4.70;2.93;;;20.20;99.90;;;;;;5015579;28;20479;-82
2023/05/31 09:26:56;;;;;;;2.50;2.13;;;20.50;99.90;;;;;;5018584;28;20452;-82
2023/05/31 09:29:23;;;;;;;3.20;2.57;;;20.60;99.90;;;;;;5017508;28;20429;-80
2023/05/31 09:32:07;;;;;;;4.17;2.47;;;20.70;99.90;;;;;;5012665;28;20460;-81
2023/05/31 09:34:34;;;;;;;2.60;2.20;;;20.70;99.90;;;;;;5017687;28;20468;-81
2023/05/31 09:37:01;;;;;;;2.33;1.73;;;20.70;99.90;;;;;;5017480;28;20473;-82
2023/05/31 09:39:28;;;;;;;4.67;2.20;;;21.20;99.90;;;;;;5016678;28;20449;-82
2023/05/31 09:41:58;;;;;;;2.87;1.93;;;20.90;99.90;;;;;;5017142;28;20435;-81
2023/05/31 09:44:27;;;;;;;5.30;2.30;;;21.20;1.00;;;;;;5012348;28;20513;-81
2023/05/31 09:46:54;;;;;;;3.70;1.93;;;20.90;99.90;;;;;;5002133;28;20468;-82
2023/05/31 09:49:21;;;;;;;2.80;1.93;;;;;;;;;;5000998;28;20532;-83
2023/05/31 09:51:52;;;;;;;4.60;1.60;;;20.80;99.90;;;;;;5005311;28;20456;-82
2023/05/31 09:54:22;;;;;;;4.57;2.10;;;20.80;99.90;;;;;;5012836;28;20469;-82
2023/05/31 09:56:49;;;;;;;5.47;2.17;;;20.70;99.90;;;;;;5008909;28;20429;-81
2023/05/31 09:59:18;;;;;;;2.60;1.90;;;20.60;99.90;;;;;;5002124;28;20448;-82
2023/05/31 10:01:48;;;;;;;7.30;2.30;;;20.60;99.90;;;;;;5001553;28;20541;-82
2023/05/31 10:04:16;;;;;;;1.50;1.40;;;20.70;99.90;;;;;;5001937;28;20489;-81
2023/05/31 10:06:47;;;;;;;4.10;2.27;;;20.80;99.90;;;;;;5001810;28;20456;-81
2023/05/31 10:09:14;;;;;;;4.83;2.50;;;20.80;99.90;;;;;;5003615;28;20441;-81
2023/05/31 10:11:47;;;;;;;6.00;2.33;;;20.90;99.90;;;;;;5010095;28;20503;-82
2023/05/31 10:14:21;;;;;;;3.30;1.90;;;20.90;99.90;;;;;;5008199;28;20536;-82
2023/05/31 10:16:51;;;;;;;4.63;3.47;;;20.90;99.90;;;;;;5012599;28;20460;-82
2023/05/31 10:19:22;;;;;;;3.67;2.13;;;21.00;99.90;;;;;;5011379;28;20455;-82
2023/05/31 10:21:50;;;;;;;3.93;1.70;;;21.10;99.90;;;;;;5011917;28;20476;-82
2023/05/31 10:24:26;;;;;;;4.33;1.80;;;21.10;99.90;;;;;;5013183;28;20489;-81
2023/05/31 10:27:02;;;;;;;3.70;2.30;;;21.10;99.90;;;;;;5013919;28;20439;-81
2023/05/31 10:29:34;;;;;;;2.70;1.73;;;21.20;99.90;;;;;;5014796;28;20433;-80
2023/05/31 10:32:07;;;;;;;6.27;2.60;;;21.30;99.90;;;;;;5014470;28;20457;-82
2023/05/31 10:34:34;;;;;;;2.30;1.63;;;21.30;99.90;;;;;;5015057;28;20472;-82
2023/05/31 10:37:03;;;;;;;5.00;1.90;;;21.40;99.90;;;;;;5011046;28;20581;-82
2023/05/31 10:39:35;;;;;;;1.60;1.50;;;21.40;99.90;;;;;;5009212;28;20462;-83
2023/05/31 10:42:10;;;;;;;2.50;1.90;;;21.50;99.90;;;;;;5012671;28;20433;-82
2023/05/31 10:44:47;;;;;;;5.60;1.97;;;21.50;99.90;;;;;;5011195;28;20563;-82
2023/05/31 10:47:17;;;;;;;3.23;2.17;;;21.50;99.90;;;;;;5009248;28;20437;-82
2023/05/31 10:49:46;;;;;;;3.30;1.80;;;21.60;99.90;;;;;;5011472;28;20472;-80
2023/05/31 10:52:14;;;;;;;3.00;2.17;;;21.90;1.00;;;;;;5007620;28;20572;-82
2023/05/31 10:54:41;;;;;;;2.00;1.70;;;21.80;99.90;;;;;;5014510;28;20445;-81
2023/05/31 10:57:10;;;;;;;6.40;1.90;;;21.80;99.90;;;;;;5015278;28;20476;-81
2023/05/31 10:59:46;;;;;;;4.57;2.30;;;21.60;99.90;;;;;;5015302;28;20484;-82
2023/05/31 11:02:15;;;;;;;4.20;2.40;;;21.50;99.90;;;;;;5015301;28;20449;-82
2023/05/31 11:04:42;;;;;;;2.90;1.73;;;21.50;99.90;;;;;;5014675;28;20497;-82
2023/05/31 11:07:16;;;;;;;5.50;1.60;;;21.40;99.90;;;;;;5014151;28;20483;-82
2023/05/31 11:09:56;;;;;;;2.37;1.77;;;21.40;99.90;;;;;;5015890;28;20445;-81
2023/05/31 11:12:33;;;;;;;5.97;1.80;;;22.10;1.00;;;;;;5015818;28;20456;-81
2023/05/31 11:15:03;;;;;;;7.70;2.40;;;21.70;99.90;;;;;;5013959;28;20461;-82
2023/05/31 11:17:31;;;;;;;5.80;2.33;;;21.60;99.90;;;;;;5009208;28;20455;-82
2023/05/31 11:19:58;;;;;;;2.30;1.60;;;21.80;99.90;;;;;;5006835;28;20452;-83
2023/05/31 11:22:28;;;;;;;2.10;1.90;;;21.60;99.90;;;;;;5012846;28;20472;-81
2023/05/31 11:24:57;;;;;;;5.17;1.77;;;21.70;1.00;;;;;;5015551;28;20495;-81
2023/05/31 11:27:35;;;;;;;5.63;2.27;;;21.50;99.90;;;;;;5007624;28;20444;-82
2023/05/31 11:30:04;;;;;;;3.20;1.67;;;21.60;99.90;;;;;;5004288;28;20926;-81
2023/05/31 11:32:59;;;;;;;5.33;1.53;;;21.70;99.90;;;;;;5006219;28;20448;-82
2023/05/31 11:35:26;;;;;;;4.87;1.60;;;21.80;99.90;;;;;;5017460;28;20541;-80
2023/05/31 11:38:07;;;;;;;2.00;1.80;;;21.80;99.90;;;;;;5017013;28;20504;-80
2023/05/31 11:40:35;;;;;;;3.20;1.70;;;21.90;99.90;;;;;;5010129;28;20480;-80
2023/05/31 11:43:07;;;;;;;3.40;1.80;;;22.00;99.90;;;;;;5001665;28;20973;-81
2023/05/31 11:45:38;;;;;;;5.00;1.70;;;22.10;99.90;;;;;;4998040;28;20612;-82
2023/05/31 11:48:23;;;;;;;5.10;1.57;;;22.10;99.90;;;;;;5000049;28;20443;-82
2023/05/31 11:50:51;;;;;;;3.00;1.40;;;22.20;99.90;;;;;;5007250;28;20434;-81
2023/05/31 11:53:17;;;;;;;1.47;1.07;;;22.20;99.90;;;;;;5009472;28;20455;-82
2023/05/31 11:55:48;;;;;;;2.20;1.23;;;22.10;99.90;;;;;;5007532;28;20560;-81
2023/05/31 11:58:15;;;;;;;4.60;1.40;;;22.20;99.90;;;;;;5005825;28;20453;-82
2023/05/31 12:00:46;;;;;;;4.00;1.40;;;22.20;1.00;;;;;;5009519;28;20447;-82
2023/05/31 12:03:16;;;;;;;7.97;1.30;;;22.40;99.90;;;;;;5006943;28;20536;-82
2023/05/31 12:05:49;;;;;;;1.30;1.20;;;22.50;99.90;;;;;;5004382;28;20519;-81
2023/05/31 12:08:17;;;;;;;1.13;0.90;;;22.40;99.90;;;;;;5004810;28;20432;-81
2023/05/31 12:10:45;;;;;;;1.40;1.30;;;22.50;99.90;;;;;;5005411;28;20469;-81
2023/05/31 12:13:12;;;;;;;2.40;2.20;;;22.40;99.90;;;;;;5014658;28;20457;-80
2023/05/31 12:15:39;;;;;;;1.20;1.10;;;22.40;99.90;;;;;;5019564;28;20488;-81
2023/05/31 12:18:07;;;;;;;1.40;1.27;;;22.40;99.90;;;;;;5006460;28;20452;-81
2023/05/31 12:20:35;;;;;;;1.43;1.10;;;22.40;99.90;;;;;;5005563;28;20448;-82
2023/05/31 12:23:15;;;;;;;2.40;1.30;;;22.30;99.90;;;;;;5005675;28;20455;-83
2023/05/31 12:25:47;;;;;;;5.53;1.70;;;22.40;99.90;;;;;;5006151;28;20516;-82
2023/05/31 12:28:14;;;;;;;3.83;1.30;;;22.40;99.90;;;;;;5013216;28;20444;-82
2023/05/31 12:30:45;;;;;;;2.20;1.00;;;22.50;99.90;;;;;;5007132;28;20499;-81
2023/05/31 12:33:14;;;;;;;2.93;1.20;;;22.60;99.90;;;;;;5003594;28;20455;-83
2023/05/31 12:35:42;;;;;;;0.90;0.90;;;22.60;99.90;;;;;;5002610;28;20494;-83
2023/05/31 12:38:09;;;;;;;1.20;1.00;;;22.40;99.90;;;;;;5002737;28;20862;-83
2023/05/31 12:40:38;;;;;;;5.13;4.50;;;22.40;99.90;;;;;;5002712;28;20455;-82
2023/05/31 12:43:06;;;;;;;1.30;1.20;;;22.50;99.90;;;;;;5002538;28;20444;-82
2023/05/31 12:45:38;;;;;;;3.67;1.20;;;22.60;99.90;;;;;;5002761;28;20475;-83
2023/05/31 12:48:07;;;;;;;1.27;1.17;;;22.80;99.90;;;;;;5002073;28;20774;-81
2023/05/31 12:50:35;;;;;;;2.80;1.40;;;22.90;99.90;;;;;;5002515;28;20484;-82
2023/05/31 12:53:06;;;;;;;6.00;1.13;;;23.00;99.90;;;;;;5002231;28;20453;-81
2023/05/31 12:55:33;;;;;;;3.53;1.10;;;23.00;99.90;;;;;;5002346;28;20893;-81
2023/05/31 12:58:00;;;;;;;2.20;1.27;;;23.10;99.90;;;;;;5002525;28;20463;-81
2023/05/31 13:00:27;;;;;;;1.63;1.20;;;23.10;99.90;;;;;;5003303;28;20547;-82
2023/05/31 13:02:54;;;;;;;1.37;1.27;;;23.20;99.90;;;;;;5002823;28;20476;-81
2023/05/31 13:05:21;;;;;;;2.03;1.70;;;23.30;99.90;;;;;;5001512;28;20492;-81
2023/05/31 13:07:50;;;;;;;1.00;0.90;;;23.30;99.90;;;;;;5001075;28;20508;-81
2023/05/31 13:10:17;;;;;;;2.30;1.40;;;23.20;99.90;;;;;;5001304;28;20478;-82
2023/05/31 13:12:44;;;;;;;1.73;1.50;;;;;;;;;;5001475;28;20531;-82
2023/05/31 13:15:11;;;;;;;5.20;1.10;;;23.30;99.90;;;;;;5002496;28;20552;-82
2023/05/31 13:17:38;;;;;;;3.03;1.20;;;23.30;99.90;;;;;;5002983;28;20463;-82
2023/05/31 13:20:07;;;;;;;2.93;1.60;;;23.30;1.00;;;;;;5002060;28;20536;-82